Disclaimer

Please do not use the information listed here in-flight or in-navigation, as they are not provided to us by the airports but are provided by volunteers, so they might be outdated.

Search


Regions


Airport information page

Radio informations:
WINDHOEK TWR - 118.1 MHz
APRON - 121.9 MHz
WINDHOEK APP - 120.5 MHz

Airport informations:
Latitude: 22° 28' 47.62" S
Longitude: 017° 28' 15.42" E
Elevation: 5640 feet - 1719 meters
Operating hours: Remarks
Operating agency: Civil government, landing fees and diplomatic clearance may be required
Timezone: UTC+1(+2DT)
Fuel: Jet A1, without icing nhibitor.

Runway information:
08/26 - 15010 x 148 feet< - >4575 x 45 meters
16/34 - 5000 x 98 feet< - >1524 x 30 meters

Recent METARs:
FYWH 160300Z 22007KT CAVOK 23/05 Q1025 NOSIG
FYWH 160300Z 22007KT CAVOK 23/05 Q1025 NOSIG
FYWH 160400Z 21009KT 9999 FEW050 BKN090 25/03 Q1025 NOSIG

Airport on the map: